PWSweather.com
Personal Weather Stations
Station Observations
KC4KQE
Superstition Mountains, Apache Junction, AZ 85119

Superstition MountainsApache Junction, AZ 85119

Lat: 33.41578, Lon: -111.49328

Elevation: 1850

Station Type: Davis Vantage Pro2 Plus

http://kc4kqe.org/

High Low Average
Temperature 104.2°F40.1°C 80.6°F27.0°C 93.6°F34.2°C
Dew Point 57.3°F14.1°C 36.5°F2.5°C 49.3°F9.6°C
Winds 15.0 mph 24.1 kmh Calm Calm 3.0 mph S4.8 kmh S
Wind Gusts 18.0 mph29.0 kmh -- 7.0 mph11.3 kmh
Humidity 42% 10% 24%
Pressure 30.03 in1016.9 mb 29.86 in1011.2 mb -
Precipitation 0.00 in0.0 mm - -
Hour Temp Dew Point Humidity Winds Wind Gusts Pressure Precip Precip Rate Daily Precip Total
12:00 AM 89.9°F32.2°C 53.3°F11.8°C 29% 7.0 mph SE11.3 kmh SE 13.0 mph20.9 kmh 29.97 in1014.9 mb 0.00 in0.0 mm 0.00 in0.0 mm 0.00 in0.0 mm
12:05 AM 89.8°F32.1°C 54.1°F12.3°C 30% 6.0 mph SE9.7 kmh SE 13.0 mph20.9 kmh 29.97 in1014.9 mb 0.00 in0.0 mm 0.00 in0.0 mm 0.00 in0.0 mm
12:10 AM 89.6°F32.0°C 54.0°F12.2°C 30% 11.0 mph ESE17.7 kmh ESE 13.0 mph20.9 kmh 29.97 in1014.9 mb 0.00 in0.0 mm 0.00 in0.0 mm 0.00 in0.0 mm
12:15 AM 89.4°F31.9°C 53.8°F12.1°C 30% 9.0 mph E14.5 kmh E 11.0 mph17.7 kmh 29.97 in1014.9 mb 0.00 in0.0 mm 0.00 in0.0 mm 0.00 in0.0 mm
12:20 AM 89.2°F31.8°C 53.6°F12.0°C 30% 10.0 mph ESE16.1 kmh ESE 15.0 mph24.1 kmh 29.97 in1014.9 mb 0.00 in0.0 mm 0.00 in0.0 mm 0.00 in0.0 mm
12:25 AM 89.0°F31.7°C 53.4°F11.9°C 30% 15.0 mph ESE24.1 kmh ESE 15.0 mph24.1 kmh 29.97 in1014.9 mb 0.00 in0.0 mm 0.00 in0.0 mm 0.00 in0.0 mm
12:30 AM 88.9°F31.6°C 54.3°F12.4°C 31% 8.0 mph SE12.9 kmh SE 15.0 mph24.1 kmh 29.97 in1014.9 mb 0.00 in0.0 mm 0.00 in0.0 mm 0.00 in0.0 mm
12:35 AM 88.7°F31.5°C 54.1°F12.3°C 31% 9.0 mph ESE14.5 kmh ESE 13.0 mph20.9 kmh 29.97 in1014.9 mb 0.00 in0.0 mm 0.00 in0.0 mm 0.00 in0.0 mm
12:40 AM 88.6°F31.4°C 54.0°F12.2°C 31% 10.0 mph SE16.1 kmh SE 16.0 mph25.7 kmh 29.97 in1014.9 mb 0.00 in0.0 mm 0.00 in0.0 mm 0.00 in0.0 mm
12:45 AM 88.5°F31.4°C 53.9°F12.2°C 31% 9.0 mph SE14.5 kmh SE 13.0 mph20.9 kmh 29.97 in1014.9 mb 0.00 in0.0 mm 0.00 in0.0 mm 0.00 in0.0 mm
12:50 AM 88.4°F31.3°C 53.8°F12.1°C 31% 7.0 mph ESE11.3 kmh ESE 15.0 mph24.1 kmh 29.97 in1014.9 mb 0.00 in0.0 mm 0.00 in0.0 mm 0.00 in0.0 mm
12:55 AM 88.4°F31.3°C 53.8°F12.1°C 31% 8.0 mph SE12.9 kmh SE 12.0 mph19.3 kmh 29.97 in1014.9 mb 0.00 in0.0 mm 0.00 in0.0 mm 0.00 in0.0 mm
01:00 AM 88.3°F31.3°C 54.6°F12.6°C 32% 7.0 mph SE11.3 kmh SE 15.0 mph24.1 kmh 29.97 in1014.9 mb 0.00 in0.0 mm 0.00 in0.0 mm 0.00 in0.0 mm
01:05 AM 88.2°F31.2°C 54.5°F12.5°C 32% 3.0 mph S4.8 kmh S 13.0 mph20.9 kmh 29.97 in1014.9 mb 0.00 in0.0 mm 0.00 in0.0 mm 0.00 in0.0 mm
01:10 AM 88.1°F31.2°C 54.4°F12.4°C 32% 7.0 mph SE11.3 kmh SE 13.0 mph20.9 kmh 29.97 in1014.9 mb 0.00 in0.0 mm 0.00 in0.0 mm 0.00 in0.0 mm
01:15 AM 87.9°F31.1°C 54.3°F12.4°C 32% 5.0 mph SE8.0 kmh SE 17.0 mph27.4 kmh 29.97 in1014.9 mb 0.00 in0.0 mm 0.00 in0.0 mm 0.00 in0.0 mm
01:20 AM 87.8°F31.0°C 54.2°F12.3°C 32% 4.0 mph SE6.4 kmh SE 13.0 mph20.9 kmh 29.97 in1014.9 mb 0.00 in0.0 mm 0.00 in0.0 mm 0.00 in0.0 mm
01:25 AM 87.7°F30.9°C 54.1°F12.3°C 32% 9.0 mph SSE14.5 kmh SSE 16.0 mph25.7 kmh 29.97 in1014.9 mb 0.00 in0.0 mm 0.00 in0.0 mm 0.00 in0.0 mm
01:30 AM 87.5°F30.8°C 53.9°F12.2°C 32% 6.0 mph SE9.7 kmh SE 16.0 mph25.7 kmh 29.97 in1014.9 mb 0.00 in0.0 mm 0.00 in0.0 mm 0.00 in0.0 mm
01:35 AM 87.4°F30.8°C 53.8°F12.1°C 32% 4.0 mph SSE6.4 kmh SSE 11.0 mph17.7 kmh 29.98 in1015.2 mb 0.00 in0.0 mm 0.00 in0.0 mm 0.00 in0.0 mm
01:40 AM 87.2°F30.7°C 54.5°F12.5°C 33% 3.0 mph SE4.8 kmh SE 11.0 mph17.7 kmh 29.98 in1015.2 mb 0.00 in0.0 mm 0.00 in0.0 mm 0.00 in0.0 mm
01:45 AM 87.2°F30.7°C 54.5°F12.5°C 33% 9.0 mph SE14.5 kmh SE 13.0 mph20.9 kmh 29.98 in1015.2 mb 0.00 in0.0 mm 0.00 in0.0 mm 0.00 in0.0 mm
01:50 AM 87.1°F30.6°C 54.4°F12.4°C 33% 8.0 mph ESE12.9 kmh ESE 15.0 mph24.1 kmh 29.98 in1015.2 mb 0.00 in0.0 mm 0.00 in0.0 mm 0.00 in0.0 mm
01:55 AM 87.1°F30.6°C 54.4°F12.4°C 33% 7.0 mph SE11.3 kmh SE 16.0 mph25.7 kmh 29.97 in1014.9 mb 0.00 in0.0 mm 0.00 in0.0 mm 0.00 in0.0 mm
02:00 AM 87.0°F30.6°C 54.3°F12.4°C 33% 4.0 mph SE6.4 kmh SE 12.0 mph19.3 kmh 29.98 in1015.2 mb 0.00 in0.0 mm 0.00 in0.0 mm 0.00 in0.0 mm
02:05 AM 87.0°F30.6°C 54.3°F12.4°C 33% 6.0 mph SSE9.7 kmh SSE 14.0 mph22.5 kmh 29.97 in1014.9 mb 0.00 in0.0 mm 0.00 in0.0 mm 0.00 in0.0 mm
02:10 AM 86.9°F30.5°C 54.2°F12.3°C 33% 6.0 mph SE9.7 kmh SE 12.0 mph19.3 kmh 29.97 in1014.9 mb 0.00 in0.0 mm 0.00 in0.0 mm 0.00 in0.0 mm
02:15 AM 86.8°F30.4°C 54.2°F12.3°C 33% 4.0 mph SE6.4 kmh SE 13.0 mph20.9 kmh 29.97 in1014.9 mb 0.00 in0.0 mm 0.00 in0.0 mm 0.00 in0.0 mm
02:20 AM 86.7°F30.4°C 54.1°F12.3°C 33% 3.0 mph SE4.8 kmh SE 11.0 mph17.7 kmh 29.97 in1014.9 mb 0.00 in0.0 mm 0.00 in0.0 mm 0.00 in0.0 mm
02:25 AM 86.7°F30.4°C 54.1°F12.3°C 33% 11.0 mph ESE17.7 kmh ESE 11.0 mph17.7 kmh 29.97 in1014.9 mb 0.00 in0.0 mm 0.00 in0.0 mm 0.00 in0.0 mm
02:30 AM 86.6°F30.3°C 54.0°F12.2°C 33% 5.0 mph SE8.0 kmh SE 10.0 mph16.1 kmh 29.98 in1015.2 mb 0.00 in0.0 mm 0.00 in0.0 mm 0.00 in0.0 mm
02:35 AM 86.5°F30.3°C 53.9°F12.2°C 33% 3.0 mph SE4.8 kmh SE 6.0 mph9.7 kmh 29.98 in1015.2 mb 0.00 in0.0 mm 0.00 in0.0 mm 0.00 in0.0 mm
02:40 AM 86.2°F30.1°C 54.5°F12.5°C 34% 3.0 mph SSE4.8 kmh SSE 6.0 mph9.7 kmh 29.98 in1015.2 mb 0.00 in0.0 mm 0.00 in0.0 mm 0.00 in0.0 mm
02:45 AM 85.9°F29.9°C 54.2°F12.3°C 34% 6.0 mph SSE9.7 kmh SSE 5.0 mph8.0 kmh 29.98 in1015.2 mb 0.00 in0.0 mm 0.00 in0.0 mm 0.00 in0.0 mm
02:50 AM 85.6°F29.8°C 53.9°F12.2°C 34% 4.0 mph SE6.4 kmh SE 6.0 mph9.7 kmh 29.98 in1015.2 mb 0.00 in0.0 mm 0.00 in0.0 mm 0.00 in0.0 mm
02:55 AM 85.4°F29.7°C 54.5°F12.5°C 35% 4.0 mph SE6.4 kmh SE 6.0 mph9.7 kmh 29.98 in1015.2 mb 0.00 in0.0 mm 0.00 in0.0 mm 0.00 in0.0 mm
03:00 AM 85.3°F29.6°C 54.5°F12.5°C 35% 3.0 mph SE4.8 kmh SE 4.0 mph6.4 kmh 29.98 in1015.2 mb 0.00 in0.0 mm 0.00 in0.0 mm 0.00 in0.0 mm
03:05 AM 85.2°F29.6°C 54.4°F12.4°C 35% 4.0 mph SE6.4 kmh SE 8.0 mph12.9 kmh 29.98 in1015.2 mb 0.00 in0.0 mm 0.00 in0.0 mm 0.00 in0.0 mm
03:10 AM 85.1°F29.5°C 54.3°F12.4°C 35% 3.0 mph SE4.8 kmh SE 6.0 mph9.7 kmh 29.98 in1015.2 mb 0.00 in0.0 mm 0.00 in0.0 mm 0.00 in0.0 mm
03:15 AM 85.0°F29.4°C 54.2°F12.3°C 35% 2.0 mph SE3.2 kmh SE 6.0 mph9.7 kmh 29.98 in1015.2 mb 0.00 in0.0 mm 0.00 in0.0 mm 0.00 in0.0 mm
03:20 AM 84.9°F29.4°C 54.1°F12.3°C 35% 1.0 mph SE1.6 kmh SE 4.0 mph6.4 kmh 29.98 in1015.2 mb 0.00 in0.0 mm 0.00 in0.0 mm 0.00 in0.0 mm
03:25 AM 84.8°F29.3°C 54.8°F12.7°C 36% Calm Calm 5.0 mph8.0 kmh 29.98 in1015.2 mb 0.00 in0.0 mm 0.00 in0.0 mm 0.00 in0.0 mm
03:30 AM 84.6°F29.2°C 54.6°F12.6°C 36% 1.0 mph SE1.6 kmh SE 4.0 mph6.4 kmh 29.98 in1015.2 mb 0.00 in0.0 mm 0.00 in0.0 mm 0.00 in0.0 mm
03:35 AM 84.5°F29.2°C 54.5°F12.5°C 36% 1.0 mph SE1.6 kmh SE 7.0 mph11.3 kmh 29.98 in1015.2 mb 0.00 in0.0 mm 0.00 in0.0 mm 0.00 in0.0 mm
03:40 AM 84.4°F29.1°C 54.4°F12.4°C 36% 3.0 mph SE4.8 kmh SE 8.0 mph12.9 kmh 29.98 in1015.2 mb 0.00 in0.0 mm 0.00 in0.0 mm 0.00 in0.0 mm
03:45 AM 84.4°F29.1°C 54.4°F12.4°C 36% 5.0 mph SE8.0 kmh SE 8.0 mph12.9 kmh 29.98 in1015.2 mb 0.00 in0.0 mm 0.00 in0.0 mm 0.00 in0.0 mm
03:50 AM 84.5°F29.2°C 54.5°F12.5°C 36% Calm Calm 7.0 mph11.3 kmh 29.99 in1015.6 mb 0.00 in0.0 mm 0.00 in0.0 mm 0.00 in0.0 mm
03:55 AM 84.5°F29.2°C 54.5°F12.5°C 36% 2.0 mph SE3.2 kmh SE 5.0 mph8.0 kmh 29.99 in1015.6 mb 0.00 in0.0 mm 0.00 in0.0 mm 0.00 in0.0 mm
04:00 AM 84.3°F29.1°C 54.4°F12.4°C 36% 3.0 mph S4.8 kmh S 5.0 mph8.0 kmh 29.99 in1015.6 mb 0.00 in0.0 mm 0.00 in0.0 mm 0.00 in0.0 mm
04:05 AM 84.2°F29.0°C 54.3°F12.4°C 36% Calm Calm 8.0 mph12.9 kmh 29.98 in1015.2 mb 0.00 in0.0 mm 0.00 in0.0 mm 0.00 in0.0 mm
04:10 AM 84.0°F28.9°C 54.8°F12.7°C 37% 2.0 mph SE3.2 kmh SE 4.0 mph6.4 kmh 29.99 in1015.6 mb 0.00 in0.0 mm 0.00 in0.0 mm 0.00 in0.0 mm
04:15 AM 83.9°F28.8°C 54.8°F12.7°C 37% 2.0 mph SE3.2 kmh SE 3.0 mph4.8 kmh 29.99 in1015.6 mb 0.00 in0.0 mm 0.00 in0.0 mm 0.00 in0.0 mm
04:20 AM 83.8°F28.8°C 54.7°F12.6°C 37% Calm Calm 3.0 mph4.8 kmh 29.99 in1015.6 mb 0.00 in0.0 mm 0.00 in0.0 mm 0.00 in0.0 mm
04:25 AM 83.6°F28.7°C 54.5°F12.5°C 37% 1.0 mph SE1.6 kmh SE 4.0 mph6.4 kmh 29.99 in1015.6 mb 0.00 in0.0 mm 0.00 in0.0 mm 0.00 in0.0 mm
04:30 AM 83.5°F28.6°C 54.4°F12.4°C 37% 2.0 mph SE3.2 kmh SE 4.0 mph6.4 kmh 29.99 in1015.6 mb 0.00 in0.0 mm 0.00 in0.0 mm 0.00 in0.0 mm
04:35 AM 83.4°F28.6°C 54.3°F12.4°C 37% 1.0 mph SE1.6 kmh SE 4.0 mph6.4 kmh 29.99 in1015.6 mb 0.00 in0.0 mm 0.00 in0.0 mm 0.00 in0.0 mm
04:40 AM 83.4°F28.6°C 54.3°F12.4°C 37% Calm Calm 7.0 mph11.3 kmh 29.99 in1015.6 mb 0.00 in0.0 mm 0.00 in0.0 mm 0.00 in0.0 mm
04:45 AM 83.3°F28.5°C 54.2°F12.3°C 37% 4.0 mph SE6.4 kmh SE 4.0 mph6.4 kmh 29.99 in1015.6 mb 0.00 in0.0 mm 0.00 in0.0 mm 0.00 in0.0 mm
04:50 AM 83.1°F28.4°C 54.8°F12.7°C 38% 1.0 mph SE1.6 kmh SE 6.0 mph9.7 kmh 29.99 in1015.6 mb 0.00 in0.0 mm 0.00 in0.0 mm 0.00 in0.0 mm
04:55 AM 83.0°F28.3°C 54.7°F12.6°C 38% 1.0 mph SE1.6 kmh SE 3.0 mph4.8 kmh 29.99 in1015.6 mb 0.00 in0.0 mm 0.00 in0.0 mm 0.00 in0.0 mm
05:00 AM 82.9°F28.3°C 54.6°F12.6°C 38% 2.0 mph SE3.2 kmh SE 6.0 mph9.7 kmh 30.00 in1015.9 mb 0.00 in0.0 mm 0.00 in0.0 mm 0.00 in0.0 mm
05:05 AM 82.8°F28.2°C 54.5°F12.5°C 38% 1.0 mph SE1.6 kmh SE 3.0 mph4.8 kmh 30.00 in1015.9 mb 0.00 in0.0 mm 0.00 in0.0 mm 0.00 in0.0 mm
05:10 AM 82.7°F28.2°C 54.4°F12.4°C 38% 2.0 mph SE3.2 kmh SE 3.0 mph4.8 kmh 30.00 in1015.9 mb 0.00 in0.0 mm 0.00 in0.0 mm 0.00 in0.0 mm
05:15 AM 82.6°F28.1°C 54.3°F12.4°C 38% 2.0 mph SE3.2 kmh SE 4.0 mph6.4 kmh 30.00 in1015.9 mb 0.00 in0.0 mm 0.00 in0.0 mm 0.00 in0.0 mm
05:20 AM 82.5°F28.1°C 54.3°F12.4°C 38% 1.0 mph SE1.6 kmh SE 3.0 mph4.8 kmh 30.00 in1015.9 mb 0.00 in0.0 mm 0.00 in0.0 mm 0.00 in0.0 mm
05:25 AM 82.4°F28.0°C 54.2°F12.3°C 38% Calm Calm 3.0 mph4.8 kmh 30.00 in1015.9 mb 0.00 in0.0 mm 0.00 in0.0 mm 0.00 in0.0 mm
05:30 AM 82.3°F27.9°C 54.1°F12.3°C 38% 1.0 mph SE1.6 kmh SE 1.0 mph1.6 kmh 30.00 in1015.9 mb 0.00 in0.0 mm 0.00 in0.0 mm 0.00 in0.0 mm
05:35 AM 82.2°F27.9°C 54.7°F12.6°C 39% Calm Calm 3.0 mph4.8 kmh 30.00 in1015.9 mb 0.00 in0.0 mm 0.00 in0.0 mm 0.00 in0.0 mm
05:40 AM 81.8°F27.7°C 54.3°F12.4°C 39% 3.0 mph SE4.8 kmh SE 4.0 mph6.4 kmh 30.01 in1016.3 mb 0.00 in0.0 mm 0.00 in0.0 mm 0.00 in0.0 mm
05:45 AM 81.5°F27.5°C 54.1°F12.3°C 39% Calm Calm 3.0 mph4.8 kmh 30.01 in1016.3 mb 0.00 in0.0 mm 0.00 in0.0 mm 0.00 in0.0 mm
05:50 AM 81.4°F27.4°C 54.0°F12.2°C 39% Calm Calm 3.0 mph4.8 kmh 30.01 in1016.3 mb 0.00 in0.0 mm 0.00 in0.0 mm 0.00 in0.0 mm
05:55 AM 81.4°F27.4°C 54.0°F12.2°C 39% Calm Calm -- 30.01 in1016.3 mb 0.00 in0.0 mm 0.00 in0.0 mm 0.00 in0.0 mm
06:00 AM 81.2°F27.3°C 54.5°F12.5°C 40% Calm Calm -- 30.01 in1016.3 mb 0.00 in0.0 mm 0.00 in0.0 mm 0.00 in0.0 mm
06:05 AM 80.9°F27.2°C 54.2°F12.3°C 40% Calm Calm 3.0 mph4.8 kmh 30.01 in1016.3 mb 0.00 in0.0 mm 0.00 in0.0 mm 0.00 in0.0 mm
06:10 AM 80.7°F27.1°C 54.7°F12.6°C 41% 1.0 mph SE1.6 kmh SE 1.0 mph1.6 kmh 30.01 in1016.3 mb 0.00 in0.0 mm 0.00 in0.0 mm 0.00 in0.0 mm
06:15 AM 80.6°F27.0°C 54.6°F12.6°C 41% Calm Calm 2.0 mph3.2 kmh 30.01 in1016.3 mb 0.00 in0.0 mm 0.00 in0.0 mm 0.00 in0.0 mm
06:20 AM 80.7°F27.1°C 55.4°F13.0°C 42% Calm Calm -- 30.01 in1016.3 mb 0.00 in0.0 mm 0.00 in0.0 mm 0.00 in0.0 mm
06:25 AM 80.9°F27.2°C 55.6°F13.1°C 42% Calm Calm -- 30.01 in1016.3 mb 0.00 in0.0 mm 0.00 in0.0 mm 0.00 in0.0 mm
06:30 AM 81.1°F27.3°C 55.1°F12.8°C 41% Calm Calm -- 30.01 in1016.3 mb 0.00 in0.0 mm 0.00 in0.0 mm 0.00 in0.0 mm
06:35 AM 81.7°F27.6°C 55.6°F13.1°C 41% Calm Calm 2.0 mph3.2 kmh 30.01 in1016.3 mb 0.00 in0.0 mm 0.00 in0.0 mm 0.00 in0.0 mm
06:40 AM 82.4°F28.0°C 56.3°F13.5°C 41% Calm Calm 2.0 mph3.2 kmh 30.01 in1016.3 mb 0.00 in0.0 mm 0.00 in0.0 mm 0.00 in0.0 mm
06:45 AM 83.0°F28.3°C 56.1°F13.4°C 40% Calm Calm 1.0 mph1.6 kmh 30.01 in1016.3 mb 0.00 in0.0 mm 0.00 in0.0 mm 0.00 in0.0 mm
06:50 AM 83.7°F28.7°C 56.0°F13.3°C 39% Calm Calm 4.0 mph6.4 kmh 30.01 in1016.3 mb 0.00 in0.0 mm 0.00 in0.0 mm 0.00 in0.0 mm
06:55 AM 84.4°F29.1°C 56.7°F13.7°C 39% 3.0 mph SSE4.8 kmh SSE 3.0 mph4.8 kmh 30.01 in1016.3 mb 0.00 in0.0 mm 0.00 in0.0 mm 0.00 in0.0 mm
07:00 AM 85.0°F29.4°C 56.5°F13.6°C 38% Calm Calm 3.0 mph4.8 kmh 30.01 in1016.3 mb 0.00 in0.0 mm 0.00 in0.0 mm 0.00 in0.0 mm
07:05 AM 85.7°F29.8°C 56.3°F13.5°C 37% 4.0 mph S6.4 kmh S 5.0 mph8.0 kmh 30.02 in1016.6 mb 0.00 in0.0 mm 0.00 in0.0 mm 0.00 in0.0 mm
07:10 AM 86.3°F30.2°C 56.9°F13.8°C 37% 5.0 mph S8.0 kmh S 6.0 mph9.7 kmh 30.02 in1016.6 mb 0.00 in0.0 mm 0.00 in0.0 mm 0.00 in0.0 mm
07:15 AM 86.8°F30.4°C 56.6°F13.7°C 36% 3.0 mph SE4.8 kmh SE 5.0 mph8.0 kmh 30.02 in1016.6 mb 0.00 in0.0 mm 0.00 in0.0 mm 0.00 in0.0 mm
07:20 AM 87.3°F30.7°C 57.0°F13.9°C 36% 1.0 mph SSE1.6 kmh SSE 6.0 mph9.7 kmh 30.02 in1016.6 mb 0.00 in0.0 mm 0.00 in0.0 mm 0.00 in0.0 mm
07:25 AM 87.6°F30.9°C 57.3°F14.1°C 36% 1.0 mph SSE1.6 kmh SSE 6.0 mph9.7 kmh 30.02 in1016.6 mb 0.00 in0.0 mm 0.00 in0.0 mm 0.00 in0.0 mm
07:30 AM 87.8°F31.0°C 56.6°F13.7°C 35% 2.0 mph SE3.2 kmh SE 8.0 mph12.9 kmh 30.02 in1016.6 mb 0.00 in0.0 mm 0.00 in0.0 mm 0.00 in0.0 mm
07:35 AM 88.1°F31.2°C 56.9°F13.8°C 35% 2.0 mph SSE3.2 kmh SSE 8.0 mph12.9 kmh 30.02 in1016.6 mb 0.00 in0.0 mm 0.00 in0.0 mm 0.00 in0.0 mm
07:40 AM 88.3°F31.3°C 57.1°F13.9°C 35% 1.0 mph SSE1.6 kmh SSE 5.0 mph8.0 kmh 30.02 in1016.6 mb 0.00 in0.0 mm 0.00 in0.0 mm 0.00 in0.0 mm
07:45 AM 88.6°F31.4°C 56.5°F13.6°C 34% 1.0 mph SSE1.6 kmh SSE 6.0 mph9.7 kmh 30.02 in1016.6 mb 0.00 in0.0 mm 0.00 in0.0 mm 0.00 in0.0 mm
07:50 AM 88.9°F31.6°C 56.8°F13.8°C 34% 3.0 mph SE4.8 kmh SE 5.0 mph8.0 kmh 30.02 in1016.6 mb 0.00 in0.0 mm 0.00 in0.0 mm 0.00 in0.0 mm
07:55 AM 89.2°F31.8°C 56.2°F13.4°C 33% 1.0 mph S1.6 kmh S 6.0 mph9.7 kmh 30.03 in1016.9 mb 0.00 in0.0 mm 0.00 in0.0 mm 0.00 in0.0 mm
08:00 AM 89.5°F31.9°C 56.5°F13.6°C 33% 1.0 mph SSE1.6 kmh SSE 7.0 mph11.3 kmh 30.03 in1016.9 mb 0.00 in0.0 mm 0.00 in0.0 mm 0.00 in0.0 mm
08:05 AM 89.5°F31.9°C 56.5°F13.6°C 33% 1.0 mph SSE1.6 kmh SSE 5.0 mph8.0 kmh 30.03 in1016.9 mb 0.00 in0.0 mm 0.00 in0.0 mm 0.00 in0.0 mm
08:10 AM 89.7°F32.1°C 55.8°F13.2°C 32% 3.0 mph SE4.8 kmh SE 7.0 mph11.3 kmh 30.03 in1016.9 mb 0.00 in0.0 mm 0.00 in0.0 mm 0.00 in0.0 mm
08:15 AM 90.2°F32.3°C 56.3°F13.5°C 32% 2.0 mph S3.2 kmh S 5.0 mph8.0 kmh 30.03 in1016.9 mb 0.00 in0.0 mm 0.00 in0.0 mm 0.00 in0.0 mm
08:20 AM 90.6°F32.6°C 55.7°F13.2°C 31% Calm Calm 6.0 mph9.7 kmh 30.03 in1016.9 mb 0.00 in0.0 mm 0.00 in0.0 mm 0.00 in0.0 mm
08:25 AM 91.2°F32.9°C 56.2°F13.4°C 31% 5.0 mph SSW8.0 kmh SSW 6.0 mph9.7 kmh 30.03 in1016.9 mb 0.00 in0.0 mm 0.00 in0.0 mm 0.00 in0.0 mm
08:30 AM 91.7°F33.2°C 53.9°F12.2°C 28% 2.0 mph S3.2 kmh S 7.0 mph11.3 kmh 30.02 in1016.6 mb 0.00 in0.0 mm 0.00 in0.0 mm 0.00 in0.0 mm
08:35 AM 92.0°F33.3°C 54.1°F12.3°C 28% 3.0 mph S4.8 kmh S 6.0 mph9.7 kmh 30.02 in1016.6 mb 0.00 in0.0 mm 0.00 in0.0 mm 0.00 in0.0 mm
08:40 AM 92.2°F33.4°C 52.3°F11.3°C 26% 3.0 mph S4.8 kmh S 7.0 mph11.3 kmh 30.03 in1016.9 mb 0.00 in0.0 mm 0.00 in0.0 mm 0.00 in0.0 mm
08:45 AM 92.2°F33.4°C 52.3°F11.3°C 26% Calm Calm 5.0 mph8.0 kmh 30.02 in1016.6 mb 0.00 in0.0 mm 0.00 in0.0 mm 0.00 in0.0 mm
08:50 AM 92.4°F33.6°C 52.4°F11.3°C 26% Calm Calm 3.0 mph4.8 kmh 30.02 in1016.6 mb 0.00 in0.0 mm 0.00 in0.0 mm 0.00 in0.0 mm
08:55 AM 92.7°F33.7°C 50.5°F10.3°C 24% 6.0 mph WSW9.7 kmh WSW 7.0 mph11.3 kmh 30.02 in1016.6 mb 0.00 in0.0 mm 0.00 in0.0 mm 0.00 in0.0 mm
09:00 AM 92.6°F33.7°C 51.5°F10.8°C 25% 4.0 mph WSW6.4 kmh WSW 6.0 mph9.7 kmh 30.02 in1016.6 mb 0.00 in0.0 mm 0.00 in0.0 mm 0.00 in0.0 mm
09:05 AM 92.5°F33.6°C 51.5°F10.8°C 25% 2.0 mph WSW3.2 kmh WSW 9.0 mph14.5 kmh 30.02 in1016.6 mb 0.00 in0.0 mm 0.00 in0.0 mm 0.00 in0.0 mm
09:10 AM 92.6°F33.7°C 52.6°F11.4°C 26% 2.0 mph SW3.2 kmh SW 7.0 mph11.3 kmh 30.02 in1016.6 mb 0.00 in0.0 mm 0.00 in0.0 mm 0.00 in0.0 mm
09:15 AM 93.1°F33.9°C 52.0°F11.1°C 25% 5.0 mph S8.0 kmh S 8.0 mph12.9 kmh 30.02 in1016.6 mb 0.00 in0.0 mm 0.00 in0.0 mm 0.00 in0.0 mm
09:20 AM 93.6°F34.2°C 52.4°F11.3°C 25% 1.0 mph SSE1.6 kmh SSE 7.0 mph11.3 kmh 30.02 in1016.6 mb 0.00 in0.0 mm 0.00 in0.0 mm 0.00 in0.0 mm
09:25 AM 94.1°F34.5°C 51.7°F10.9°C 24% 1.0 mph SE1.6 kmh SE 5.0 mph8.0 kmh 30.02 in1016.6 mb 0.00 in0.0 mm 0.00 in0.0 mm 0.00 in0.0 mm
09:30 AM 94.5°F34.7°C 52.0°F11.1°C 24% Calm Calm 7.0 mph11.3 kmh 30.02 in1016.6 mb 0.00 in0.0 mm 0.00 in0.0 mm 0.00 in0.0 mm
09:35 AM 94.8°F34.9°C 52.3°F11.3°C 24% 4.0 mph S6.4 kmh S 6.0 mph9.7 kmh 30.02 in1016.6 mb 0.00 in0.0 mm 0.00 in0.0 mm 0.00 in0.0 mm
09:40 AM 94.6°F34.8°C 52.1°F11.2°C 24% Calm Calm 7.0 mph11.3 kmh 30.02 in1016.6 mb 0.00 in0.0 mm 0.00 in0.0 mm 0.00 in0.0 mm
09:45 AM 94.5°F34.7°C 50.9°F10.5°C 23% 4.0 mph WSW6.4 kmh WSW 8.0 mph12.9 kmh 30.02 in1016.6 mb 0.00 in0.0 mm 0.00 in0.0 mm 0.00 in0.0 mm
09:50 AM 94.5°F34.7°C 50.9°F10.5°C 23% 1.0 mph SE1.6 kmh SE 5.0 mph8.0 kmh 30.02 in1016.6 mb 0.00 in0.0 mm 0.00 in0.0 mm 0.00 in0.0 mm
09:55 AM 94.9°F34.9°C 51.2°F10.7°C 23% 3.0 mph SSW4.8 kmh SSW 8.0 mph12.9 kmh 30.02 in1016.6 mb 0.00 in0.0 mm 0.00 in0.0 mm 0.00 in0.0 mm
10:00 AM 95.5°F35.3°C 51.7°F10.9°C 23% 7.0 mph SW11.3 kmh SW 8.0 mph12.9 kmh 30.02 in1016.6 mb 0.00 in0.0 mm 0.00 in0.0 mm 0.00 in0.0 mm
10:05 AM 95.7°F35.4°C 51.9°F11.1°C 23% Calm Calm 10.0 mph16.1 kmh 30.02 in1016.6 mb 0.00 in0.0 mm 0.00 in0.0 mm 0.00 in0.0 mm
10:10 AM 96.1°F35.6°C 52.2°F11.2°C 23% 1.0 mph SW1.6 kmh SW 9.0 mph14.5 kmh 30.01 in1016.3 mb 0.00 in0.0 mm 0.00 in0.0 mm 0.00 in0.0 mm
10:15 AM 95.9°F35.5°C 50.8°F10.4°C 22% 6.0 mph SW9.7 kmh SW 10.0 mph16.1 kmh 30.02 in1016.6 mb 0.00 in0.0 mm 0.00 in0.0 mm 0.00 in0.0 mm
10:20 AM 95.7°F35.4°C 50.7°F10.4°C 22% 3.0 mph W4.8 kmh W 9.0 mph14.5 kmh 30.01 in1016.3 mb 0.00 in0.0 mm 0.00 in0.0 mm 0.00 in0.0 mm
10:25 AM 95.5°F35.3°C 50.5°F10.3°C 22% 5.0 mph WSW8.0 kmh WSW 6.0 mph9.7 kmh 30.01 in1016.3 mb 0.00 in0.0 mm 0.00 in0.0 mm 0.00 in0.0 mm
10:30 AM 95.7°F35.4°C 50.7°F10.4°C 22% 2.0 mph WSW3.2 kmh WSW 9.0 mph14.5 kmh 30.01 in1016.3 mb 0.00 in0.0 mm 0.00 in0.0 mm 0.00 in0.0 mm
10:35 AM 95.7°F35.4°C 50.7°F10.4°C 22% 4.0 mph WSW6.4 kmh WSW 7.0 mph11.3 kmh 30.01 in1016.3 mb 0.00 in0.0 mm 0.00 in0.0 mm 0.00 in0.0 mm
10:40 AM 95.7°F35.4°C 50.7°F10.4°C 22% 2.0 mph WSW3.2 kmh WSW 6.0 mph9.7 kmh 30.01 in1016.3 mb 0.00 in0.0 mm 0.00 in0.0 mm 0.00 in0.0 mm
10:45 AM 95.7°F35.4°C 50.7°F10.4°C 22% 4.0 mph WSW6.4 kmh WSW 4.0 mph6.4 kmh 30.01 in1016.3 mb 0.00 in0.0 mm 0.00 in0.0 mm 0.00 in0.0 mm
10:50 AM 95.7°F35.4°C 50.7°F10.4°C 22% Calm Calm 7.0 mph11.3 kmh 30.01 in1016.3 mb 0.00 in0.0 mm 0.00 in0.0 mm 0.00 in0.0 mm
10:55 AM 95.7°F35.4°C 50.7°F10.4°C 22% 2.0 mph SSE3.2 kmh SSE 7.0 mph11.3 kmh 30.01 in1016.3 mb 0.00 in0.0 mm 0.00 in0.0 mm 0.00 in0.0 mm
11:00 AM 95.7°F35.4°C 50.7°F10.4°C 22% 2.0 mph S3.2 kmh S 9.0 mph14.5 kmh 30.01 in1016.3 mb 0.00 in0.0 mm 0.00 in0.0 mm 0.00 in0.0 mm
11:05 AM 95.7°F35.4°C 50.7°F10.4°C 22% 4.0 mph SW6.4 kmh SW 8.0 mph12.9 kmh 30.01 in1016.3 mb 0.00 in0.0 mm 0.00 in0.0 mm 0.00 in0.0 mm
11:10 AM 95.7°F35.4°C 50.7°F10.4°C 22% 2.0 mph WSW3.2 kmh WSW 7.0 mph11.3 kmh 30.00 in1015.9 mb 0.00 in0.0 mm 0.00 in0.0 mm 0.00 in0.0 mm
11:15 AM 98.4°F36.9°C 48.9°F9.4°C 19% 7.0 mph S11.3 kmh S 10.0 mph16.1 kmh 30.01 in1016.3 mb 0.00 in0.0 mm 0.00 in0.0 mm 0.00 in0.0 mm
11:20 AM 98.8°F37.1°C 49.3°F9.6°C 19% 4.0 mph S6.4 kmh S 8.0 mph12.9 kmh 30.00 in1015.9 mb 0.00 in0.0 mm 0.00 in0.0 mm 0.00 in0.0 mm
11:25 AM 99.0°F37.2°C 48.0°F8.9°C 18% 2.0 mph SSW3.2 kmh SSW 8.0 mph12.9 kmh 30.00 in1015.9 mb 0.00 in0.0 mm 0.00 in0.0 mm 0.00 in0.0 mm
11:30 AM 99.4°F37.4°C 48.3°F9.1°C 18% 2.0 mph SSE3.2 kmh SSE 7.0 mph11.3 kmh 30.00 in1015.9 mb 0.00 in0.0 mm 0.00 in0.0 mm 0.00 in0.0 mm
11:35 AM 99.4°F37.4°C 49.7°F9.8°C 19% 1.0 mph S1.6 kmh S 5.0 mph8.0 kmh 30.00 in1015.9 mb 0.00 in0.0 mm 0.00 in0.0 mm 0.00 in0.0 mm
11:40 AM 100.1°F37.8°C 47.3°F8.5°C 17% 7.0 mph WSW11.3 kmh WSW 10.0 mph16.1 kmh 30.00 in1015.9 mb 0.00 in0.0 mm 0.00 in0.0 mm 0.00 in0.0 mm
11:45 AM 99.6°F37.6°C 46.9°F8.3°C 17% 9.0 mph WSW14.5 kmh WSW 10.0 mph16.1 kmh 29.99 in1015.6 mb 0.00 in0.0 mm 0.00 in0.0 mm 0.00 in0.0 mm
11:50 AM 98.8°F37.1°C 46.3°F7.9°C 17% 2.0 mph SW3.2 kmh SW 9.0 mph14.5 kmh 29.99 in1015.6 mb 0.00 in0.0 mm 0.00 in0.0 mm 0.00 in0.0 mm
11:55 AM 98.6°F37.0°C 46.1°F7.8°C 17% 5.0 mph W8.0 kmh W 6.0 mph9.7 kmh 29.99 in1015.6 mb 0.00 in0.0 mm 0.00 in0.0 mm 0.00 in0.0 mm
12:00 PM 99.0°F37.2°C 44.9°F7.2°C 16% 5.0 mph S8.0 kmh S 8.0 mph12.9 kmh 29.99 in1015.6 mb 0.00 in0.0 mm 0.00 in0.0 mm 0.00 in0.0 mm
12:05 PM 99.8°F37.7°C 47.1°F8.4°C 17% 6.0 mph N9.7 kmh N 7.0 mph11.3 kmh 29.99 in1015.6 mb 0.00 in0.0 mm 0.00 in0.0 mm 0.00 in0.0 mm
12:10 PM 100.2°F37.9°C 45.8°F7.7°C 16% 3.0 mph WNW4.8 kmh WNW 7.0 mph11.3 kmh 29.99 in1015.6 mb 0.00 in0.0 mm 0.00 in0.0 mm 0.00 in0.0 mm
12:15 PM 99.7°F37.6°C 43.7°F6.5°C 15% 10.0 mph WSW16.1 kmh WSW 15.0 mph24.1 kmh 29.99 in1015.6 mb 0.00 in0.0 mm 0.00 in0.0 mm 0.00 in0.0 mm
12:20 PM 99.4°F37.4°C 43.5°F6.4°C 15% 7.0 mph 11.3 kmh 12.0 mph19.3 kmh 29.99 in1015.6 mb 0.00 in0.0 mm 0.00 in0.0 mm 0.00 in0.0 mm
12:25 PM 100.0°F37.8°C 43.9°F6.6°C 15% 3.0 mph SSW4.8 kmh SSW 10.0 mph16.1 kmh 29.98 in1015.2 mb 0.00 in0.0 mm 0.00 in0.0 mm 0.00 in0.0 mm
12:30 PM 100.5°F38.1°C 42.5°F5.8°C 14% 2.0 mph SW3.2 kmh SW 9.0 mph14.5 kmh 29.98 in1015.2 mb 0.00 in0.0 mm 0.00 in0.0 mm 0.00 in0.0 mm
12:35 PM 100.5°F38.1°C 42.5°F5.8°C 14% 2.0 mph SW3.2 kmh SW 9.0 mph14.5 kmh 29.98 in1015.2 mb 0.00 in0.0 mm 0.00 in0.0 mm 0.00 in0.0 mm
12:40 PM 100.6°F38.1°C 42.6°F5.9°C 14% 4.0 mph SSW6.4 kmh SSW 8.0 mph12.9 kmh 29.98 in1015.2 mb 0.00 in0.0 mm 0.00 in0.0 mm 0.00 in0.0 mm
12:45 PM 101.3°F38.5°C 45.0°F7.2°C 15% 7.0 mph WSW11.3 kmh WSW 8.0 mph12.9 kmh 29.98 in1015.2 mb 0.00 in0.0 mm 0.00 in0.0 mm 0.00 in0.0 mm
12:50 PM 101.2°F38.4°C 43.1°F6.2°C 14% 1.0 mph S1.6 kmh S 9.0 mph14.5 kmh 29.97 in1014.9 mb 0.00 in0.0 mm 0.00 in0.0 mm 0.00 in0.0 mm
12:55 PM 101.8°F38.8°C 43.6°F6.4°C 14% 1.0 mph SSW1.6 kmh SSW 7.0 mph11.3 kmh 29.97 in1014.9 mb 0.00 in0.0 mm 0.00 in0.0 mm 0.00 in0.0 mm
01:00 PM 102.6°F39.2°C 42.2°F5.7°C 13% 6.0 mph S9.7 kmh S 9.0 mph14.5 kmh 29.97 in1014.9 mb 0.00 in0.0 mm 0.00 in0.0 mm 0.00 in0.0 mm
01:05 PM 103.4°F39.7°C 42.9°F6.1°C 13% 2.0 mph SSW3.2 kmh SSW 7.0 mph11.3 kmh 29.97 in1014.9 mb 0.00 in0.0 mm 0.00 in0.0 mm 0.00 in0.0 mm
01:10 PM 103.6°F39.8°C 43.0°F6.1°C 13% 4.0 mph ESE6.4 kmh ESE 7.0 mph11.3 kmh 29.96 in1014.6 mb 0.00 in0.0 mm 0.00 in0.0 mm 0.00 in0.0 mm
01:15 PM 103.1°F39.5°C 40.6°F4.8°C 12% 9.0 mph WSW14.5 kmh WSW 11.0 mph17.7 kmh 29.96 in1014.6 mb 0.00 in0.0 mm 0.00 in0.0 mm 0.00 in0.0 mm
01:20 PM 103.0°F39.4°C 42.6°F5.9°C 13% 6.0 mph SW9.7 kmh SW 8.0 mph12.9 kmh 29.96 in1014.6 mb 0.00 in0.0 mm 0.00 in0.0 mm 0.00 in0.0 mm
01:25 PM 103.2°F39.6°C 42.7°F5.9°C 13% 1.0 mph SW1.6 kmh SW 8.0 mph12.9 kmh 29.96 in1014.6 mb 0.00 in0.0 mm 0.00 in0.0 mm 0.00 in0.0 mm
01:30 PM 103.0°F39.4°C 42.6°F5.9°C 13% 6.0 mph SW9.7 kmh SW 9.0 mph14.5 kmh 29.95 in1014.2 mb 0.00 in0.0 mm 0.00 in0.0 mm 0.00 in0.0 mm
01:35 PM 102.6°F39.2°C 42.2°F5.7°C 13% 1.0 mph S1.6 kmh S 8.0 mph12.9 kmh 29.95 in1014.2 mb 0.00 in0.0 mm 0.00 in0.0 mm 0.00 in0.0 mm
01:40 PM 102.2°F39.0°C 41.9°F5.5°C 13% 9.0 mph W14.5 kmh W 11.0 mph17.7 kmh 29.95 in1014.2 mb 0.00 in0.0 mm 0.00 in0.0 mm 0.00 in0.0 mm
01:45 PM 101.9°F38.8°C 41.7°F5.4°C 13% 2.0 mph NW3.2 kmh NW 10.0 mph16.1 kmh 29.95 in1014.2 mb 0.00 in0.0 mm 0.00 in0.0 mm 0.00 in0.0 mm
01:50 PM 101.7°F38.7°C 41.5°F5.3°C 13% 1.0 mph NW1.6 kmh NW 10.0 mph16.1 kmh 29.95 in1014.2 mb 0.00 in0.0 mm 0.00 in0.0 mm 0.00 in0.0 mm
01:55 PM 101.6°F38.7°C 41.5°F5.3°C 13% 3.0 mph WSW4.8 kmh WSW 12.0 mph19.3 kmh 29.94 in1013.9 mb 0.00 in0.0 mm 0.00 in0.0 mm 0.00 in0.0 mm
02:00 PM 101.6°F38.7°C 41.5°F5.3°C 13% Calm Calm 13.0 mph20.9 kmh 29.94 in1013.9 mb 0.00 in0.0 mm 0.00 in0.0 mm 0.00 in0.0 mm
02:05 PM 101.9°F38.8°C 41.7°F5.4°C 13% 8.0 mph W12.9 kmh W 9.0 mph14.5 kmh 29.94 in1013.9 mb 0.00 in0.0 mm 0.00 in0.0 mm 0.00 in0.0 mm
02:10 PM 101.9°F38.8°C 39.6°F4.2°C 12% 1.0 mph WSW1.6 kmh WSW 13.0 mph20.9 kmh 29.94 in1013.9 mb 0.00 in0.0 mm 0.00 in0.0 mm 0.00 in0.0 mm
02:15 PM 102.1°F38.9°C 39.8°F4.3°C 12% 2.0 mph WSW3.2 kmh WSW 6.0 mph9.7 kmh 29.94 in1013.9 mb 0.00 in0.0 mm 0.00 in0.0 mm 0.00 in0.0 mm
02:20 PM 102.4°F39.1°C 37.8°F3.2°C 11% 7.0 mph SW11.3 kmh SW 10.0 mph16.1 kmh 29.94 in1013.9 mb 0.00 in0.0 mm 0.00 in0.0 mm 0.00 in0.0 mm
02:25 PM 102.7°F39.3°C 38.0°F3.3°C 11% 4.0 mph WSW6.4 kmh WSW 7.0 mph11.3 kmh 29.93 in1013.5 mb 0.00 in0.0 mm 0.00 in0.0 mm 0.00 in0.0 mm
02:30 PM 102.8°F39.3°C 38.1°F3.4°C 11% 4.0 mph WSW6.4 kmh WSW 8.0 mph12.9 kmh 29.93 in1013.5 mb 0.00 in0.0 mm 0.00 in0.0 mm 0.00 in0.0 mm
02:35 PM 103.9°F39.9°C 36.5°F2.5°C 10% 4.0 mph SSW6.4 kmh SSW 8.0 mph12.9 kmh 29.93 in1013.5 mb 0.00 in0.0 mm 0.00 in0.0 mm 0.00 in0.0 mm
02:40 PM 103.9°F39.9°C 38.9°F3.8°C 11% 3.0 mph WSW4.8 kmh WSW 14.0 mph22.5 kmh 29.93 in1013.5 mb 0.00 in0.0 mm 0.00 in0.0 mm 0.00 in0.0 mm
02:45 PM 103.7°F39.8°C 38.8°F3.8°C 11% 13.0 mph WSW20.9 kmh WSW 12.0 mph19.3 kmh 29.93 in1013.5 mb 0.00 in0.0 mm 0.00 in0.0 mm 0.00 in0.0 mm
02:50 PM 103.7°F39.8°C 38.8°F3.8°C 11% 6.0 mph 9.7 kmh 13.0 mph20.9 kmh 29.92 in1013.2 mb 0.00 in0.0 mm 0.00 in0.0 mm 0.00 in0.0 mm
02:55 PM 103.8°F39.9°C 38.9°F3.8°C 11% 7.0 mph 11.3 kmh 10.0 mph16.1 kmh 29.92 in1013.2 mb 0.00 in0.0 mm 0.00 in0.0 mm 0.00 in0.0 mm
03:00 PM 104.1°F40.1°C 39.1°F3.9°C 11% 4.0 mph SW6.4 kmh SW 10.0 mph16.1 kmh 29.92 in1013.2 mb 0.00 in0.0 mm 0.00 in0.0 mm 0.00 in0.0 mm
03:05 PM 104.2°F40.1°C 39.2°F4.0°C 11% 3.0 mph NNW4.8 kmh NNW 10.0 mph16.1 kmh 29.92 in1013.2 mb 0.00 in0.0 mm 0.00 in0.0 mm 0.00 in0.0 mm
03:10 PM 103.9°F39.9°C 38.9°F3.8°C 11% 11.0 mph 17.7 kmh 12.0 mph19.3 kmh 29.91 in1012.9 mb 0.00 in0.0 mm 0.00 in0.0 mm 0.00 in0.0 mm
03:15 PM 103.4°F39.7°C 38.6°F3.7°C 11% 6.0 mph W9.7 kmh W 13.0 mph20.9 kmh 29.91 in1012.9 mb 0.00 in0.0 mm 0.00 in0.0 mm 0.00 in0.0 mm
03:20 PM 103.6°F39.8°C 38.7°F3.7°C 11% 3.0 mph SSW4.8 kmh SSW 8.0 mph12.9 kmh 29.91 in1012.9 mb 0.00 in0.0 mm 0.00 in0.0 mm 0.00 in0.0 mm
03:25 PM 104.1°F40.1°C 39.1°F3.9°C 11% 8.0 mph 12.9 kmh 18.0 mph29.0 kmh 29.91 in1012.9 mb 0.00 in0.0 mm 0.00 in0.0 mm 0.00 in0.0 mm
03:30 PM 103.9°F39.9°C 38.9°F3.8°C 11% 8.0 mph WSW12.9 kmh WSW 18.0 mph29.0 kmh 29.91 in1012.9 mb 0.00 in0.0 mm 0.00 in0.0 mm 0.00 in0.0 mm
03:35 PM 104.0°F40.0°C 39.0°F3.9°C 11% 7.0 mph SSW11.3 kmh SSW 11.0 mph17.7 kmh 29.90 in1012.5 mb 0.00 in0.0 mm 0.00 in0.0 mm 0.00 in0.0 mm
03:40 PM 104.1°F40.1°C 39.1°F3.9°C 11% 4.0 mph SW6.4 kmh SW 9.0 mph14.5 kmh 29.90 in1012.5 mb 0.00 in0.0 mm 0.00 in0.0 mm 0.00 in0.0 mm
03:45 PM 104.1°F40.1°C 39.1°F3.9°C 11% 4.0 mph SSW6.4 kmh SSW 10.0 mph16.1 kmh 29.90 in1012.5 mb 0.00 in0.0 mm 0.00 in0.0 mm 0.00 in0.0 mm
03:50 PM 104.1°F40.1°C 39.1°F3.9°C 11% 6.0 mph 9.7 kmh 13.0 mph20.9 kmh 29.90 in1012.5 mb 0.00 in0.0 mm 0.00 in0.0 mm 0.00 in0.0 mm
03:55 PM 103.9°F39.9°C 38.9°F3.8°C 11% 1.0 mph SW1.6 kmh SW 10.0 mph16.1 kmh 29.90 in1012.5 mb 0.00 in0.0 mm 0.00 in0.0 mm 0.00 in0.0 mm
04:00 PM 104.0°F40.0°C 39.0°F3.9°C 11% 9.0 mph SW14.5 kmh SW 11.0 mph17.7 kmh 29.89 in1012.2 mb 0.00 in0.0 mm 0.00 in0.0 mm 0.00 in0.0 mm
04:05 PM 103.8°F39.9°C 41.1°F5.1°C 12% 7.0 mph WSW11.3 kmh WSW 11.0 mph17.7 kmh 29.90 in1012.5 mb 0.00 in0.0 mm 0.00 in0.0 mm 0.00 in0.0 mm
04:10 PM 103.3°F39.6°C 40.7°F4.8°C 12% 4.0 mph WSW6.4 kmh WSW 12.0 mph19.3 kmh 29.89 in1012.2 mb 0.00 in0.0 mm 0.00 in0.0 mm 0.00 in0.0 mm
04:15 PM 103.3°F39.6°C 40.7°F4.8°C 12% Calm Calm 10.0 mph16.1 kmh 29.89 in1012.2 mb 0.00 in0.0 mm 0.00 in0.0 mm 0.00 in0.0 mm
04:20 PM 103.6°F39.8°C 40.9°F4.9°C 12% 5.0 mph SW8.0 kmh SW 12.0 mph19.3 kmh 29.89 in1012.2 mb 0.00 in0.0 mm 0.00 in0.0 mm 0.00 in0.0 mm
04:25 PM 103.6°F39.8°C 40.9°F4.9°C 12% 4.0 mph SSW6.4 kmh SSW 9.0 mph14.5 kmh 29.89 in1012.2 mb 0.00 in0.0 mm 0.00 in0.0 mm 0.00 in0.0 mm
04:30 PM 103.5°F39.7°C 40.9°F4.9°C 12% 9.0 mph WSW14.5 kmh WSW 9.0 mph14.5 kmh 29.89 in1012.2 mb 0.00 in0.0 mm 0.00 in0.0 mm 0.00 in0.0 mm
04:35 PM 103.3°F39.6°C 40.7°F4.8°C 12% 3.0 mph SSW4.8 kmh SSW 11.0 mph17.7 kmh 29.89 in1012.2 mb 0.00 in0.0 mm 0.00 in0.0 mm 0.00 in0.0 mm
04:40 PM 103.4°F39.7°C 40.8°F4.9°C 12% 9.0 mph SW14.5 kmh SW 9.0 mph14.5 kmh 29.89 in1012.2 mb 0.00 in0.0 mm 0.00 in0.0 mm 0.00 in0.0 mm
04:45 PM 103.4°F39.7°C 40.8°F4.9°C 12% 4.0 mph WSW6.4 kmh WSW 11.0 mph17.7 kmh 29.89 in1012.2 mb 0.00 in0.0 mm 0.00 in0.0 mm 0.00 in0.0 mm
04:50 PM 103.0°F39.4°C 40.5°F4.7°C 12% 3.0 mph WSW4.8 kmh WSW 12.0 mph19.3 kmh 29.88 in1011.9 mb 0.00 in0.0 mm 0.00 in0.0 mm 0.00 in0.0 mm
04:55 PM 103.1°F39.5°C 40.6°F4.8°C 12% 4.0 mph SW6.4 kmh SW 7.0 mph11.3 kmh 29.88 in1011.9 mb 0.00 in0.0 mm 0.00 in0.0 mm 0.00 in0.0 mm
05:00 PM 103.1°F39.5°C 40.6°F4.8°C 12% 5.0 mph SSW8.0 kmh SSW 11.0 mph17.7 kmh 29.88 in1011.9 mb 0.00 in0.0 mm 0.00 in0.0 mm 0.00 in0.0 mm
05:05 PM 103.2°F39.6°C 40.6°F4.8°C 12% 8.0 mph WSW12.9 kmh WSW 12.0 mph19.3 kmh 29.88 in1011.9 mb 0.00 in0.0 mm 0.00 in0.0 mm 0.00 in0.0 mm
05:10 PM 103.0°F39.4°C 40.5°F4.7°C 12% 4.0 mph W6.4 kmh W 12.0 mph19.3 kmh 29.88 in1011.9 mb 0.00 in0.0 mm 0.00 in0.0 mm 0.00 in0.0 mm
05:15 PM 102.8°F39.3°C 40.3°F4.6°C 12% 2.0 mph W3.2 kmh W 8.0 mph12.9 kmh 29.88 in1011.9 mb 0.00 in0.0 mm 0.00 in0.0 mm 0.00 in0.0 mm
05:20 PM 102.8°F39.3°C 40.3°F4.6°C 12% 8.0 mph W12.9 kmh W 9.0 mph14.5 kmh 29.88 in1011.9 mb 0.00 in0.0 mm 0.00 in0.0 mm 0.00 in0.0 mm
05:25 PM 102.6°F39.2°C 40.2°F4.6°C 12% 4.0 mph WNW6.4 kmh WNW 9.0 mph14.5 kmh 29.87 in1011.5 mb 0.00 in0.0 mm 0.00 in0.0 mm 0.00 in0.0 mm
05:30 PM 102.3°F39.1°C 39.9°F4.4°C 12% 7.0 mph W11.3 kmh W 11.0 mph17.7 kmh 29.87 in1011.5 mb 0.00 in0.0 mm 0.00 in0.0 mm 0.00 in0.0 mm
05:35 PM 102.4°F39.1°C 40.0°F4.4°C 12% 5.0 mph W8.0 kmh W 11.0 mph17.7 kmh 29.87 in1011.5 mb 0.00 in0.0 mm 0.00 in0.0 mm 0.00 in0.0 mm
05:40 PM 102.5°F39.2°C 40.1°F4.5°C 12% 5.0 mph WNW8.0 kmh WNW 8.0 mph12.9 kmh 29.87 in1011.5 mb 0.00 in0.0 mm 0.00 in0.0 mm 0.00 in0.0 mm
05:45 PM 102.1°F38.9°C 39.8°F4.3°C 12% 6.0 mph WSW9.7 kmh WSW 9.0 mph14.5 kmh 29.87 in1011.5 mb 0.00 in0.0 mm 0.00 in0.0 mm 0.00 in0.0 mm
05:50 PM 101.8°F38.8°C 39.6°F4.2°C 12% 2.0 mph WSW3.2 kmh WSW 10.0 mph16.1 kmh 29.87 in1011.5 mb 0.00 in0.0 mm 0.00 in0.0 mm 0.00 in0.0 mm
05:55 PM 101.6°F38.7°C 39.4°F4.1°C 12% 5.0 mph 8.0 kmh 7.0 mph11.3 kmh 29.87 in1011.5 mb 0.00 in0.0 mm 0.00 in0.0 mm 0.00 in0.0 mm
06:00 PM 101.3°F38.5°C 39.2°F4.0°C 12% 4.0 mph WNW6.4 kmh WNW 10.0 mph16.1 kmh 29.87 in1011.5 mb 0.00 in0.0 mm 0.00 in0.0 mm 0.00 in0.0 mm
06:05 PM 100.9°F38.3°C 38.9°F3.8°C 12% 2.0 mph NW3.2 kmh NW 7.0 mph11.3 kmh 29.87 in1011.5 mb 0.00 in0.0 mm 0.00 in0.0 mm 0.00 in0.0 mm
06:10 PM 100.7°F38.2°C 40.8°F4.9°C 13% 5.0 mph WSW8.0 kmh WSW 7.0 mph11.3 kmh 29.86 in1011.2 mb 0.00 in0.0 mm 0.00 in0.0 mm 0.00 in0.0 mm
06:15 PM 100.8°F38.2°C 38.8°F3.8°C 12% 5.0 mph NW8.0 kmh NW 7.0 mph11.3 kmh 29.86 in1011.2 mb 0.00 in0.0 mm 0.00 in0.0 mm 0.00 in0.0 mm
06:20 PM 100.8°F38.2°C 40.9°F4.9°C 13% 5.0 mph WSW8.0 kmh WSW 11.0 mph17.7 kmh 29.86 in1011.2 mb 0.00 in0.0 mm 0.00 in0.0 mm 0.00 in0.0 mm
06:25 PM 100.7°F38.2°C 38.7°F3.7°C 12% 5.0 mph SW8.0 kmh SW 10.0 mph16.1 kmh 29.87 in1011.5 mb 0.00 in0.0 mm 0.00 in0.0 mm 0.00 in0.0 mm
06:30 PM 100.3°F37.9°C 40.5°F4.7°C 13% 3.0 mph WSW4.8 kmh WSW 5.0 mph8.0 kmh 29.87 in1011.5 mb 0.00 in0.0 mm 0.00 in0.0 mm 0.00 in0.0 mm
06:35 PM 99.9°F37.7°C 40.2°F4.6°C 13% 3.0 mph WSW4.8 kmh WSW 7.0 mph11.3 kmh 29.86 in1011.2 mb 0.00 in0.0 mm 0.00 in0.0 mm 0.00 in0.0 mm
06:40 PM 99.8°F37.7°C 40.1°F4.5°C 13% Calm Calm 4.0 mph6.4 kmh 29.86 in1011.2 mb 0.00 in0.0 mm 0.00 in0.0 mm 0.00 in0.0 mm
06:45 PM 99.9°F37.7°C 40.2°F4.6°C 13% 1.0 mph W1.6 kmh W 3.0 mph4.8 kmh 29.86 in1011.2 mb 0.00 in0.0 mm 0.00 in0.0 mm 0.00 in0.0 mm
06:50 PM 100.0°F37.8°C 42.2°F5.7°C 14% 2.0 mph SW3.2 kmh SW 5.0 mph8.0 kmh 29.86 in1011.2 mb 0.00 in0.0 mm 0.00 in0.0 mm 0.00 in0.0 mm
06:55 PM 100.2°F37.9°C 42.3°F5.7°C 14% 1.0 mph SSW1.6 kmh SSW 5.0 mph8.0 kmh 29.86 in1011.2 mb 0.00 in0.0 mm 0.00 in0.0 mm 0.00 in0.0 mm
07:00 PM 100.3°F37.9°C 42.4°F5.8°C 14% 4.0 mph WSW6.4 kmh WSW 7.0 mph11.3 kmh 29.87 in1011.5 mb 0.00 in0.0 mm 0.00 in0.0 mm 0.00 in0.0 mm
07:05 PM 100.2°F37.9°C 44.1°F6.7°C 15% Calm Calm 4.0 mph6.4 kmh 29.86 in1011.2 mb 0.00 in0.0 mm 0.00 in0.0 mm 0.00 in0.0 mm
07:10 PM 100.1°F37.8°C 44.0°F6.7°C 15% 1.0 mph WSW1.6 kmh WSW 5.0 mph8.0 kmh 29.86 in1011.2 mb 0.00 in0.0 mm 0.00 in0.0 mm 0.00 in0.0 mm
07:15 PM 99.9°F37.7°C 43.9°F6.6°C 15% 2.0 mph SW3.2 kmh SW 6.0 mph9.7 kmh 29.86 in1011.2 mb 0.00 in0.0 mm 0.00 in0.0 mm 0.00 in0.0 mm
07:20 PM 99.6°F37.6°C 45.3°F7.4°C 16% 4.0 mph WSW6.4 kmh WSW 7.0 mph11.3 kmh 29.86 in1011.2 mb 0.00 in0.0 mm 0.00 in0.0 mm 0.00 in0.0 mm
07:25 PM 99.3°F37.4°C 45.1°F7.3°C 16% Calm Calm 7.0 mph11.3 kmh 29.86 in1011.2 mb 0.00 in0.0 mm 0.00 in0.0 mm 0.00 in0.0 mm
07:30 PM 99.0°F37.2°C 44.9°F7.2°C 16% Calm Calm 1.0 mph1.6 kmh 29.86 in1011.2 mb 0.00 in0.0 mm 0.00 in0.0 mm 0.00 in0.0 mm
07:35 PM 98.8°F37.1°C 44.7°F7.1°C 16% 2.0 mph SW3.2 kmh SW 2.0 mph3.2 kmh 29.86 in1011.2 mb 0.00 in0.0 mm 0.00 in0.0 mm 0.00 in0.0 mm
07:40 PM 98.5°F36.9°C 46.1°F7.8°C 17% Calm Calm 4.0 mph6.4 kmh 29.86 in1011.2 mb 0.00 in0.0 mm 0.00 in0.0 mm 0.00 in0.0 mm
07:45 PM 98.2°F36.8°C 45.8°F7.7°C 17% Calm Calm 4.0 mph6.4 kmh 29.87 in1011.5 mb 0.00 in0.0 mm 0.00 in0.0 mm 0.00 in0.0 mm
07:50 PM 97.9°F36.6°C 45.6°F7.6°C 17% Calm Calm 2.0 mph3.2 kmh 29.87 in1011.5 mb 0.00 in0.0 mm 0.00 in0.0 mm 0.00 in0.0 mm
07:55 PM 97.6°F36.4°C 45.3°F7.4°C 17% Calm Calm -- 29.87 in1011.5 mb 0.00 in0.0 mm 0.00 in0.0 mm 0.00 in0.0 mm
08:00 PM 97.4°F36.3°C 45.2°F7.3°C 17% Calm Calm 3.0 mph4.8 kmh 29.87 in1011.5 mb 0.00 in0.0 mm 0.00 in0.0 mm 0.00 in0.0 mm
08:05 PM 97.0°F36.1°C 44.9°F7.2°C 17% Calm Calm 1.0 mph1.6 kmh 29.87 in1011.5 mb 0.00 in0.0 mm 0.00 in0.0 mm 0.00 in0.0 mm
08:10 PM 96.8°F36.0°C 46.2°F7.9°C 18% Calm Calm 1.0 mph1.6 kmh 29.87 in1011.5 mb 0.00 in0.0 mm 0.00 in0.0 mm 0.00 in0.0 mm
08:15 PM 96.5°F35.8°C 46.0°F7.8°C 18% Calm Calm -- 29.87 in1011.5 mb 0.00 in0.0 mm 0.00 in0.0 mm 0.00 in0.0 mm
08:20 PM 96.1°F35.6°C 45.6°F7.6°C 18% Calm Calm -- 29.87 in1011.5 mb 0.00 in0.0 mm 0.00 in0.0 mm 0.00 in0.0 mm
08:25 PM 95.7°F35.4°C 45.3°F7.4°C 18% Calm Calm -- 29.87 in1011.5 mb 0.00 in0.0 mm 0.00 in0.0 mm 0.00 in0.0 mm
08:30 PM 95.2°F35.1°C 46.3°F7.9°C 19% Calm Calm -- 29.87 in1011.5 mb 0.00 in0.0 mm 0.00 in0.0 mm 0.00 in0.0 mm
08:35 PM 94.6°F34.8°C 45.9°F7.7°C 19% Calm Calm -- 29.87 in1011.5 mb 0.00 in0.0 mm 0.00 in0.0 mm 0.00 in0.0 mm
08:40 PM 94.0°F34.4°C 46.7°F8.2°C 20% Calm Calm -- 29.87 in1011.5 mb 0.00 in0.0 mm 0.00 in0.0 mm 0.00 in0.0 mm
08:45 PM 93.5°F34.2°C 46.3°F7.9°C 20% 5.0 mph S8.0 kmh S 7.0 mph11.3 kmh 29.88 in1011.9 mb 0.00 in0.0 mm 0.00 in0.0 mm 0.00 in0.0 mm
08:50 PM 93.1°F33.9°C 49.7°F9.8°C 23% 5.0 mph SSW8.0 kmh SSW 7.0 mph11.3 kmh 29.88 in1011.9 mb 0.00 in0.0 mm 0.00 in0.0 mm 0.00 in0.0 mm
08:55 PM 92.8°F33.8°C 51.7°F10.9°C 25% 1.0 mph S1.6 kmh S 7.0 mph11.3 kmh 29.88 in1011.9 mb 0.00 in0.0 mm 0.00 in0.0 mm 0.00 in0.0 mm
09:00 PM 92.7°F33.7°C 51.6°F10.9°C 25% 1.0 mph S1.6 kmh S 5.0 mph8.0 kmh 29.88 in1011.9 mb 0.00 in0.0 mm 0.00 in0.0 mm 0.00 in0.0 mm
09:05 PM 92.7°F33.7°C 51.6°F10.9°C 25% 1.0 mph SSE1.6 kmh SSE 3.0 mph4.8 kmh 29.88 in1011.9 mb 0.00 in0.0 mm 0.00 in0.0 mm 0.00 in0.0 mm
09:10 PM 92.6°F33.7°C 52.6°F11.4°C 26% Calm Calm 4.0 mph6.4 kmh 29.88 in1011.9 mb 0.00 in0.0 mm 0.00 in0.0 mm 0.00 in0.0 mm
09:15 PM 92.6°F33.7°C 51.5°F10.8°C 25% Calm Calm 3.0 mph4.8 kmh 29.89 in1012.2 mb 0.00 in0.0 mm 0.00 in0.0 mm 0.00 in0.0 mm
09:20 PM 92.6°F33.7°C 52.6°F11.4°C 26% Calm Calm 3.0 mph4.8 kmh 29.89 in1012.2 mb 0.00 in0.0 mm 0.00 in0.0 mm 0.00 in0.0 mm
09:25 PM 92.5°F33.6°C 52.5°F11.4°C 26% 2.0 mph ESE3.2 kmh ESE 4.0 mph6.4 kmh 29.89 in1012.2 mb 0.00 in0.0 mm 0.00 in0.0 mm 0.00 in0.0 mm
09:30 PM 92.4°F33.6°C 53.5°F11.9°C 27% 2.0 mph SE3.2 kmh SE 5.0 mph8.0 kmh 29.90 in1012.5 mb 0.00 in0.0 mm 0.00 in0.0 mm 0.00 in0.0 mm
09:35 PM 92.5°F33.6°C 52.5°F11.4°C 26% 2.0 mph SE3.2 kmh SE 8.0 mph12.9 kmh 29.90 in1012.5 mb 0.00 in0.0 mm 0.00 in0.0 mm 0.00 in0.0 mm
09:40 PM 92.6°F33.7°C 53.6°F12.0°C 27% 1.0 mph SSE1.6 kmh SSE 7.0 mph11.3 kmh 29.90 in1012.5 mb 0.00 in0.0 mm 0.00 in0.0 mm 0.00 in0.0 mm
09:45 PM 92.6°F33.7°C 53.6°F12.0°C 27% 1.0 mph SE1.6 kmh SE 5.0 mph8.0 kmh 29.90 in1012.5 mb 0.00 in0.0 mm 0.00 in0.0 mm 0.00 in0.0 mm
09:50 PM 92.5°F33.6°C 54.5°F12.5°C 28% 1.0 mph SE1.6 kmh SE 6.0 mph9.7 kmh 29.90 in1012.5 mb 0.00 in0.0 mm 0.00 in0.0 mm 0.00 in0.0 mm
09:55 PM 92.5°F33.6°C 54.5°F12.5°C 28% 2.0 mph SSE3.2 kmh SSE 5.0 mph8.0 kmh 29.90 in1012.5 mb 0.00 in0.0 mm 0.00 in0.0 mm 0.00 in0.0 mm
10:00 PM 92.4°F33.6°C 54.5°F12.5°C 28% 1.0 mph SSE1.6 kmh SSE 7.0 mph11.3 kmh 29.90 in1012.5 mb 0.00 in0.0 mm 0.00 in0.0 mm 0.00 in0.0 mm
10:05 PM 92.4°F33.6°C 54.5°F12.5°C 28% 1.0 mph SSE1.6 kmh SSE 3.0 mph4.8 kmh 29.90 in1012.5 mb 0.00 in0.0 mm 0.00 in0.0 mm 0.00 in0.0 mm
10:10 PM 92.3°F33.5°C 54.4°F12.4°C 28% Calm Calm 4.0 mph6.4 kmh 29.90 in1012.5 mb 0.00 in0.0 mm 0.00 in0.0 mm 0.00 in0.0 mm
10:15 PM 92.2°F33.4°C 54.3°F12.4°C 28% Calm Calm 3.0 mph4.8 kmh 29.90 in1012.5 mb 0.00 in0.0 mm 0.00 in0.0 mm 0.00 in0.0 mm
10:20 PM 92.0°F33.3°C 54.1°F12.3°C 28% Calm Calm 3.0 mph4.8 kmh 29.90 in1012.5 mb 0.00 in0.0 mm 0.00 in0.0 mm 0.00 in0.0 mm
10:25 PM 92.0°F33.3°C 55.1°F12.8°C 29% 1.0 mph SE1.6 kmh SE 2.0 mph3.2 kmh 29.90 in1012.5 mb 0.00 in0.0 mm 0.00 in0.0 mm 0.00 in0.0 mm
10:30 PM 91.9°F33.3°C 55.0°F12.8°C 29% 1.0 mph SE1.6 kmh SE 2.0 mph3.2 kmh 29.90 in1012.5 mb 0.00 in0.0 mm 0.00 in0.0 mm 0.00 in0.0 mm
10:35 PM 91.9°F33.3°C 55.0°F12.8°C 29% 1.0 mph SE1.6 kmh SE 2.0 mph3.2 kmh 29.90 in1012.5 mb 0.00 in0.0 mm 0.00 in0.0 mm 0.00 in0.0 mm
10:40 PM 91.7°F33.2°C 54.8°F12.7°C 29% Calm Calm 2.0 mph3.2 kmh 29.90 in1012.5 mb 0.00 in0.0 mm 0.00 in0.0 mm 0.00 in0.0 mm
10:45 PM 91.6°F33.1°C 54.7°F12.6°C 29% Calm Calm -- 29.90 in1012.5 mb 0.00 in0.0 mm 0.00 in0.0 mm 0.00 in0.0 mm
10:50 PM 91.5°F33.1°C 54.7°F12.6°C 29% 2.0 mph SE3.2 kmh SE 2.0 mph3.2 kmh 29.90 in1012.5 mb 0.00 in0.0 mm 0.00 in0.0 mm 0.00 in0.0 mm
10:55 PM 91.3°F32.9°C 54.5°F12.5°C 29% Calm Calm 3.0 mph4.8 kmh 29.91 in1012.9 mb 0.00 in0.0 mm 0.00 in0.0 mm 0.00 in0.0 mm
11:00 PM 91.1°F32.8°C 54.3°F12.4°C 29% Calm Calm 1.0 mph1.6 kmh 29.90 in1012.5 mb 0.00 in0.0 mm 0.00 in0.0 mm 0.00 in0.0 mm
11:05 PM 90.9°F32.7°C 55.1°F12.8°C 30% Calm Calm 1.0 mph1.6 kmh 29.90 in1012.5 mb 0.00 in0.0 mm 0.00 in0.0 mm 0.00 in0.0 mm
11:10 PM 90.7°F32.6°C 54.9°F12.7°C 30% 1.0 mph SE1.6 kmh SE 3.0 mph4.8 kmh 29.90 in1012.5 mb 0.00 in0.0 mm 0.00 in0.0 mm 0.00 in0.0 mm
11:15 PM 90.6°F32.6°C 54.8°F12.7°C 30% 2.0 mph SSE3.2 kmh SSE 4.0 mph6.4 kmh 29.91 in1012.9 mb 0.00 in0.0 mm 0.00 in0.0 mm 0.00 in0.0 mm
11:20 PM 90.6°F32.6°C 54.8°F12.7°C 30% 2.0 mph SE3.2 kmh SE 3.0 mph4.8 kmh 29.91 in1012.9 mb 0.00 in0.0 mm 0.00 in0.0 mm 0.00 in0.0 mm
11:25 PM 90.5°F32.5°C 54.7°F12.6°C 30% Calm Calm 4.0 mph6.4 kmh 29.91 in1012.9 mb 0.00 in0.0 mm 0.00 in0.0 mm 0.00 in0.0 mm
11:30 PM 90.4°F32.4°C 54.6°F12.6°C 30% 2.0 mph SSE3.2 kmh SSE 3.0 mph4.8 kmh 29.91 in1012.9 mb 0.00 in0.0 mm 0.00 in0.0 mm 0.00 in0.0 mm
11:35 PM 90.3°F32.4°C 54.6°F12.6°C 30% Calm Calm 3.0 mph4.8 kmh 29.91 in1012.9 mb 0.00 in0.0 mm 0.00 in0.0 mm 0.00 in0.0 mm
11:40 PM 90.2°F32.3°C 55.4°F13.0°C 31% Calm Calm 3.0 mph4.8 kmh 29.91 in1012.9 mb 0.00 in0.0 mm 0.00 in0.0 mm 0.00 in0.0 mm
11:45 PM 90.0°F32.2°C 55.2°F12.9°C 31% 2.0 mph SE3.2 kmh SE 8.0 mph12.9 kmh 29.91 in1012.9 mb 0.00 in0.0 mm 0.00 in0.0 mm 0.00 in0.0 mm
11:50 PM 90.0°F32.2°C 55.2°F12.9°C 31% 2.0 mph SE3.2 kmh SE 5.0 mph8.0 kmh 29.91 in1012.9 mb 0.00 in0.0 mm 0.00 in0.0 mm 0.00 in0.0 mm
11:55 PM 89.9°F32.2°C 55.1°F12.8°C 31% 3.0 mph SE4.8 kmh SE 10.0 mph16.1 kmh 29.91 in1012.9 mb 0.00 in0.0 mm 0.00 in0.0 mm 0.00 in0.0 mm